sensor_id;sensor_type;location;lat;lon;timestamp;temperature;humidity
19292;DHT22;9779;51.756;7.450;2022-07-24T00:02:02;18.80;99.90
19292;DHT22;9779;51.756;7.450;2022-07-24T00:04:28;18.80;99.90
19292;DHT22;9779;51.756;7.450;2022-07-24T00:06:53;18.80;99.90
19292;DHT22;9779;51.756;7.450;2022-07-24T00:09:19;18.80;99.90
19292;DHT22;9779;51.756;7.450;2022-07-24T00:11:44;18.80;99.90
19292;DHT22;9779;51.756;7.450;2022-07-24T00:14:10;18.80;99.90
19292;DHT22;9779;51.756;7.450;2022-07-24T00:16:36;18.70;99.90
19292;DHT22;9779;51.756;7.450;2022-07-24T00:19:04;18.70;99.90
19292;DHT22;9779;51.756;7.450;2022-07-24T00:21:29;18.60;99.90
19292;DHT22;9779;51.756;7.450;2022-07-24T00:23:55;18.60;99.90
19292;DHT22;9779;51.756;7.450;2022-07-24T00:26:21;18.60;99.90
19292;DHT22;9779;51.756;7.450;2022-07-24T00:28:46;18.50;99.90
19292;DHT22;9779;51.756;7.450;2022-07-24T00:31:13;18.50;99.90
19292;DHT22;9779;51.756;7.450;2022-07-24T00:33:39;18.50;99.90
19292;DHT22;9779;51.756;7.450;2022-07-24T00:36:05;18.40;99.90
19292;DHT22;9779;51.756;7.450;2022-07-24T00:38:31;18.40;99.90
19292;DHT22;9779;51.756;7.450;2022-07-24T00:40:56;18.50;99.90
19292;DHT22;9779;51.756;7.450;2022-07-24T00:43:22;18.40;99.90
19292;DHT22;9779;51.756;7.450;2022-07-24T00:45:48;18.30;99.90
19292;DHT22;9779;51.756;7.450;2022-07-24T00:48:13;18.30;99.90
19292;DHT22;9779;51.756;7.450;2022-07-24T00:50:39;18.30;99.90
19292;DHT22;9779;51.756;7.450;2022-07-24T00:53:05;18.20;99.90
19292;DHT22;9779;51.756;7.450;2022-07-24T00:55:32;18.20;99.90
19292;DHT22;9779;51.756;7.450;2022-07-24T00:57:59;18.20;99.90
19292;DHT22;9779;51.756;7.450;2022-07-24T01:00:24;18.20;99.90
19292;DHT22;9779;51.756;7.450;2022-07-24T01:02:50;18.10;99.90
19292;DHT22;9779;51.756;7.450;2022-07-24T01:05:19;18.10;99.90
19292;DHT22;9779;51.756;7.450;2022-07-24T01:07:45;18.00;99.90
19292;DHT22;9779;51.756;7.450;2022-07-24T01:10:11;18.00;99.90
19292;DHT22;9779;51.756;7.450;2022-07-24T01:12:38;18.00;99.90
19292;DHT22;9779;51.756;7.450;2022-07-24T01:15:05;18.00;99.90
19292;DHT22;9779;51.756;7.450;2022-07-24T01:17:33;18.00;99.90
19292;DHT22;9779;51.756;7.450;2022-07-24T01:20:00;17.90;99.90
19292;DHT22;9779;51.756;7.450;2022-07-24T01:22:27;17.90;99.90
19292;DHT22;9779;51.756;7.450;2022-07-24T01:24:53;17.80;99.90
19292;DHT22;9779;51.756;7.450;2022-07-24T01:27:20;17.80;99.90
19292;DHT22;9779;51.756;7.450;2022-07-24T01:29:46;17.80;99.90
19292;DHT22;9779;51.756;7.450;2022-07-24T01:32:12;17.80;99.90
19292;DHT22;9779;51.756;7.450;2022-07-24T01:34:37;17.70;99.90
19292;DHT22;9779;51.756;7.450;2022-07-24T01:37:03;17.70;99.90
19292;DHT22;9779;51.756;7.450;2022-07-24T01:39:29;17.70;99.90
19292;DHT22;9779;51.756;7.450;2022-07-24T01:41:54;17.70;99.90
19292;DHT22;9779;51.756;7.450;2022-07-24T01:44:20;17.70;99.90
19292;DHT22;9779;51.756;7.450;2022-07-24T01:46:45;17.60;99.90
19292;DHT22;9779;51.756;7.450;2022-07-24T01:49:11;17.60;99.90
19292;DHT22;9779;51.756;7.450;2022-07-24T01:51:37;17.60;99.90
19292;DHT22;9779;51.756;7.450;2022-07-24T01:54:02;17.60;99.90
19292;DHT22;9779;51.756;7.450;2022-07-24T01:56:29;17.50;99.90
19292;DHT22;9779;51.756;7.450;2022-07-24T01:58:55;17.50;99.90
19292;DHT22;9779;51.756;7.450;2022-07-24T02:01:20;17.50;99.90
19292;DHT22;9779;51.756;7.450;2022-07-24T02:03:46;17.40;99.90
19292;DHT22;9779;51.756;7.450;2022-07-24T02:06:14;17.40;99.90
19292;DHT22;9779;51.756;7.450;2022-07-24T02:08:40;17.40;99.90
19292;DHT22;9779;51.756;7.450;2022-07-24T02:11:05;17.40;99.90
19292;DHT22;9779;51.756;7.450;2022-07-24T02:13:31;17.30;99.90
19292;DHT22;9779;51.756;7.450;2022-07-24T02:15:57;17.30;99.90
19292;DHT22;9779;51.756;7.450;2022-07-24T02:18:22;17.30;99.90
19292;DHT22;9779;51.756;7.450;2022-07-24T02:20:48;17.30;99.90
19292;DHT22;9779;51.756;7.450;2022-07-24T02:23:14;17.20;99.90
19292;DHT22;9779;51.756;7.450;2022-07-24T02:25:47;17.20;99.90
19292;DHT22;9779;51.756;7.450;2022-07-24T02:28:13;17.20;99.90
19292;DHT22;9779;51.756;7.450;2022-07-24T02:30:39;17.10;99.90
19292;DHT22;9779;51.756;7.450;2022-07-24T02:33:05;17.10;99.90
19292;DHT22;9779;51.756;7.450;2022-07-24T02:35:30;17.10;99.90
19292;DHT22;9779;51.756;7.450;2022-07-24T02:37:56;17.10;99.90
19292;DHT22;9779;51.756;7.450;2022-07-24T02:40:22;17.10;99.90
19292;DHT22;9779;51.756;7.450;2022-07-24T02:42:47;17.10;99.90
19292;DHT22;9779;51.756;7.450;2022-07-24T02:45:13;17.10;99.90
19292;DHT22;9779;51.756;7.450;2022-07-24T02:47:53;17.00;99.90
19292;DHT22;9779;51.756;7.450;2022-07-24T02:50:22;17.00;99.90
19292;DHT22;9779;51.756;7.450;2022-07-24T02:52:48;17.00;99.90
19292;DHT22;9779;51.756;7.450;2022-07-24T02:55:14;17.00;99.90
19292;DHT22;9779;51.756;7.450;2022-07-24T02:57:40;17.00;99.90
19292;DHT22;9779;51.756;7.450;2022-07-24T03:00:09;17.00;99.90
19292;DHT22;9779;51.756;7.450;2022-07-24T03:02:35;17.00;99.90
19292;DHT22;9779;51.756;7.450;2022-07-24T03:05:02;17.00;99.90
19292;DHT22;9779;51.756;7.450;2022-07-24T03:07:29;16.90;99.90
19292;DHT22;9779;51.756;7.450;2022-07-24T03:09:54;16.80;99.90
19292;DHT22;9779;51.756;7.450;2022-07-24T03:12:20;16.80;99.90
19292;DHT22;9779;51.756;7.450;2022-07-24T03:14:46;16.80;99.90
19292;DHT22;9779;51.756;7.450;2022-07-24T03:17:11;16.80;99.90
19292;DHT22;9779;51.756;7.450;2022-07-24T03:19:37;16.80;99.90
19292;DHT22;9779;51.756;7.450;2022-07-24T03:22:02;16.70;99.90
19292;DHT22;9779;51.756;7.450;2022-07-24T03:24:28;16.70;99.90
19292;DHT22;9779;51.756;7.450;2022-07-24T03:26:54;16.70;99.90
19292;DHT22;9779;51.756;7.450;2022-07-24T03:29:19;16.60;99.90
19292;DHT22;9779;51.756;7.450;2022-07-24T03:31:45;16.60;99.90
19292;DHT22;9779;51.756;7.450;2022-07-24T03:34:10;16.70;99.90
19292;DHT22;9779;51.756;7.450;2022-07-24T03:36:36;16.60;99.90
19292;DHT22;9779;51.756;7.450;2022-07-24T03:39:03;16.60;99.90
19292;DHT22;9779;51.756;7.450;2022-07-24T03:41:28;16.50;99.90
19292;DHT22;9779;51.756;7.450;2022-07-24T03:43:54;16.50;99.90
19292;DHT22;9779;51.756;7.450;2022-07-24T03:46:20;16.50;99.90
19292;DHT22;9779;51.756;7.450;2022-07-24T03:48:45;16.50;99.90
19292;DHT22;9779;51.756;7.450;2022-07-24T03:51:11;16.50;99.90
19292;DHT22;9779;51.756;7.450;2022-07-24T03:53:36;16.50;99.90
19292;DHT22;9779;51.756;7.450;2022-07-24T03:56:07;16.50;99.90
19292;DHT22;9779;51.756;7.450;2022-07-24T03:58:33;16.50;99.90
19292;DHT22;9779;51.756;7.450;2022-07-24T04:00:58;16.50;99.90
19292;DHT22;9779;51.756;7.450;2022-07-24T04:03:24;16.50;99.90
19292;DHT22;9779;51.756;7.450;2022-07-24T04:05:50;16.50;99.90
19292;DHT22;9779;51.756;7.450;2022-07-24T04:08:15;16.50;99.90
19292;DHT22;9779;51.756;7.450;2022-07-24T04:10:41;16.50;99.90
19292;DHT22;9779;51.756;7.450;2022-07-24T04:13:06;16.50;99.90
19292;DHT22;9779;51.756;7.450;2022-07-24T04:15:32;16.50;99.90
19292;DHT22;9779;51.756;7.450;2022-07-24T04:17:58;16.50;99.90
19292;DHT22;9779;51.756;7.450;2022-07-24T04:20:24;16.50;99.90
19292;DHT22;9779;51.756;7.450;2022-07-24T04:22:49;16.50;99.90
19292;DHT22;9779;51.756;7.450;2022-07-24T04:25:15;16.50;99.90
19292;DHT22;9779;51.756;7.450;2022-07-24T04:27:40;16.50;99.90
19292;DHT22;9779;51.756;7.450;2022-07-24T04:30:06;16.50;99.90
19292;DHT22;9779;51.756;7.450;2022-07-24T04:32:32;16.50;99.90
19292;DHT22;9779;51.756;7.450;2022-07-24T04:34:58;16.50;99.90
19292;DHT22;9779;51.756;7.450;2022-07-24T04:37:23;16.40;99.90
19292;DHT22;9779;51.756;7.450;2022-07-24T04:39:49;16.40;99.90
19292;DHT22;9779;51.756;7.450;2022-07-24T04:42:14;16.50;99.90
19292;DHT22;9779;51.756;7.450;2022-07-24T04:44:40;16.40;99.90
19292;DHT22;9779;51.756;7.450;2022-07-24T04:47:06;16.50;99.90
19292;DHT22;9779;51.756;7.450;2022-07-24T04:49:31;16.50;99.90
19292;DHT22;9779;51.756;7.450;2022-07-24T04:51:57;16.50;99.90
19292;DHT22;9779;51.756;7.450;2022-07-24T04:54:23;16.50;99.90
19292;DHT22;9779;51.756;7.450;2022-07-24T04:56:48;16.50;99.90
19292;DHT22;9779;51.756;7.450;2022-07-24T04:59:14;16.50;99.90
19292;DHT22;9779;51.756;7.450;2022-07-24T05:01:40;16.50;99.90
19292;DHT22;9779;51.756;7.450;2022-07-24T05:04:05;16.50;99.90
19292;DHT22;9779;51.756;7.450;2022-07-24T05:06:31;16.50;99.90
19292;DHT22;9779;51.756;7.450;2022-07-24T05:08:56;16.50;99.90
19292;DHT22;9779;51.756;7.450;2022-07-24T05:11:22;16.50;99.90
19292;DHT22;9779;51.756;7.450;2022-07-24T05:13:48;16.50;99.90
19292;DHT22;9779;51.756;7.450;2022-07-24T05:16:13;16.60;99.90
19292;DHT22;9779;51.756;7.450;2022-07-24T05:18:39;16.60;99.90
19292;DHT22;9779;51.756;7.450;2022-07-24T05:21:05;16.60;99.90
19292;DHT22;9779;51.756;7.450;2022-07-24T05:23:31;16.70;99.90
19292;DHT22;9779;51.756;7.450;2022-07-24T05:25:57;16.70;99.90
19292;DHT22;9779;51.756;7.450;2022-07-24T05:28:22;16.70;99.90
19292;DHT22;9779;51.756;7.450;2022-07-24T05:30:48;16.70;99.90
19292;DHT22;9779;51.756;7.450;2022-07-24T05:33:14;16.80;99.90
19292;DHT22;9779;51.756;7.450;2022-07-24T05:35:39;16.80;99.90
19292;DHT22;9779;51.756;7.450;2022-07-24T05:38:05;16.80;99.90
19292;DHT22;9779;51.756;7.450;2022-07-24T05:40:30;16.80;99.90
19292;DHT22;9779;51.756;7.450;2022-07-24T05:42:56;16.80;99.90
19292;DHT22;9779;51.756;7.450;2022-07-24T05:45:21;16.90;99.90
19292;DHT22;9779;51.756;7.450;2022-07-24T05:47:47;16.90;99.90
19292;DHT22;9779;51.756;7.450;2022-07-24T05:50:13;17.00;99.90
19292;DHT22;9779;51.756;7.450;2022-07-24T05:52:40;17.00;99.90
19292;DHT22;9779;51.756;7.450;2022-07-24T05:55:06;17.00;99.90
19292;DHT22;9779;51.756;7.450;2022-07-24T05:57:32;17.10;99.90
19292;DHT22;9779;51.756;7.450;2022-07-24T05:59:58;17.10;99.90
19292;DHT22;9779;51.756;7.450;2022-07-24T06:02:24;17.10;99.90
19292;DHT22;9779;51.756;7.450;2022-07-24T06:04:49;17.20;99.90
19292;DHT22;9779;51.756;7.450;2022-07-24T06:07:15;17.20;99.90
19292;DHT22;9779;51.756;7.450;2022-07-24T06:09:40;17.30;99.90
19292;DHT22;9779;51.756;7.450;2022-07-24T06:12:06;17.30;99.90
19292;DHT22;9779;51.756;7.450;2022-07-24T06:14:32;17.30;99.90
19292;DHT22;9779;51.756;7.450;2022-07-24T06:16:59;17.40;99.90
19292;DHT22;9779;51.756;7.450;2022-07-24T06:19:25;17.40;99.90
19292;DHT22;9779;51.756;7.450;2022-07-24T06:21:51;17.40;99.90
19292;DHT22;9779;51.756;7.450;2022-07-24T06:24:16;17.50;99.90
19292;DHT22;9779;51.756;7.450;2022-07-24T06:26:42;17.50;99.90
19292;DHT22;9779;51.756;7.450;2022-07-24T06:29:08;17.60;99.90
19292;DHT22;9779;51.756;7.450;2022-07-24T06:31:33;17.60;99.90
19292;DHT22;9779;51.756;7.450;2022-07-24T06:33:59;17.70;99.90
19292;DHT22;9779;51.756;7.450;2022-07-24T06:36:24;17.80;99.90
19292;DHT22;9779;51.756;7.450;2022-07-24T06:38:50;17.80;99.90
19292;DHT22;9779;51.756;7.450;2022-07-24T06:41:15;17.80;99.90
19292;DHT22;9779;51.756;7.450;2022-07-24T06:43:41;17.90;99.90
19292;DHT22;9779;51.756;7.450;2022-07-24T06:46:06;18.00;99.90
19292;DHT22;9779;51.756;7.450;2022-07-24T06:48:32;18.00;99.90
19292;DHT22;9779;51.756;7.450;2022-07-24T06:50:58;18.10;99.90
19292;DHT22;9779;51.756;7.450;2022-07-24T06:53:24;18.20;99.90
19292;DHT22;9779;51.756;7.450;2022-07-24T06:55:49;18.30;99.90
19292;DHT22;9779;51.756;7.450;2022-07-24T06:58:19;18.30;99.90
19292;DHT22;9779;51.756;7.450;2022-07-24T07:00:45;18.40;99.90
19292;DHT22;9779;51.756;7.450;2022-07-24T07:03:11;18.50;99.90
19292;DHT22;9779;51.756;7.450;2022-07-24T07:05:36;18.60;99.90
19292;DHT22;9779;51.756;7.450;2022-07-24T07:08:02;18.70;99.90
19292;DHT22;9779;51.756;7.450;2022-07-24T07:10:28;18.80;99.90
19292;DHT22;9779;51.756;7.450;2022-07-24T07:12:53;19.00;99.90
19292;DHT22;9779;51.756;7.450;2022-07-24T07:15:19;19.00;99.90
19292;DHT22;9779;51.756;7.450;2022-07-24T07:17:45;19.10;99.90
19292;DHT22;9779;51.756;7.450;2022-07-24T07:20:11;19.10;99.90
19292;DHT22;9779;51.756;7.450;2022-07-24T07:22:37;19.20;99.90
19292;DHT22;9779;51.756;7.450;2022-07-24T07:25:04;19.30;99.90
19292;DHT22;9779;51.756;7.450;2022-07-24T07:27:29;19.40;99.90
19292;DHT22;9779;51.756;7.450;2022-07-24T07:29:55;19.50;99.90
19292;DHT22;9779;51.756;7.450;2022-07-24T07:32:20;19.70;99.90
19292;DHT22;9779;51.756;7.450;2022-07-24T07:34:46;19.80;99.90
19292;DHT22;9779;51.756;7.450;2022-07-24T07:37:11;19.90;99.90
19292;DHT22;9779;51.756;7.450;2022-07-24T07:39:37;20.00;99.90
19292;DHT22;9779;51.756;7.450;2022-07-24T07:42:03;20.10;99.90
19292;DHT22;9779;51.756;7.450;2022-07-24T07:44:28;20.10;99.90
19292;DHT22;9779;51.756;7.450;2022-07-24T07:46:54;20.30;99.90
19292;DHT22;9779;51.756;7.450;2022-07-24T07:49:19;20.40;99.90
19292;DHT22;9779;51.756;7.450;2022-07-24T07:51:45;20.50;99.90
19292;DHT22;9779;51.756;7.450;2022-07-24T07:54:13;20.60;99.90
19292;DHT22;9779;51.756;7.450;2022-07-24T07:56:40;20.70;99.90
19292;DHT22;9779;51.756;7.450;2022-07-24T07:59:06;20.90;99.90
19292;DHT22;9779;51.756;7.450;2022-07-24T08:01:31;20.90;99.90
19292;DHT22;9779;51.756;7.450;2022-07-24T08:03:57;21.10;99.90
19292;DHT22;9779;51.756;7.450;2022-07-24T08:06:23;21.20;99.90
19292;DHT22;9779;51.756;7.450;2022-07-24T08:08:48;21.30;99.90
19292;DHT22;9779;51.756;7.450;2022-07-24T08:11:14;21.40;99.90
19292;DHT22;9779;51.756;7.450;2022-07-24T08:13:39;21.60;99.90
19292;DHT22;9779;51.756;7.450;2022-07-24T08:16:05;21.70;99.90
19292;DHT22;9779;51.756;7.450;2022-07-24T08:18:31;21.80;99.90
19292;DHT22;9779;51.756;7.450;2022-07-24T08:20:56;21.90;99.90
19292;DHT22;9779;51.756;7.450;2022-07-24T08:23:22;22.00;99.90
19292;DHT22;9779;51.756;7.450;2022-07-24T08:25:48;22.10;99.90
19292;DHT22;9779;51.756;7.450;2022-07-24T08:28:13;22.10;99.90
19292;DHT22;9779;51.756;7.450;2022-07-24T08:30:39;22.30;99.90
19292;DHT22;9779;51.756;7.450;2022-07-24T08:33:04;22.40;99.90
19292;DHT22;9779;51.756;7.450;2022-07-24T08:35:30;22.50;99.90
19292;DHT22;9779;51.756;7.450;2022-07-24T08:37:56;22.50;99.90
19292;DHT22;9779;51.756;7.450;2022-07-24T08:40:22;22.70;99.90
19292;DHT22;9779;51.756;7.450;2022-07-24T08:42:48;22.80;99.90
19292;DHT22;9779;51.756;7.450;2022-07-24T08:45:13;23.00;99.90
19292;DHT22;9779;51.756;7.450;2022-07-24T08:47:40;23.10;99.90
19292;DHT22;9779;51.756;7.450;2022-07-24T08:50:07;23.20;99.90
19292;DHT22;9779;51.756;7.450;2022-07-24T08:52:33;23.30;99.90
19292;DHT22;9779;51.756;7.450;2022-07-24T08:55:01;23.30;99.90
19292;DHT22;9779;51.756;7.450;2022-07-24T08:57:27;23.40;99.90
19292;DHT22;9779;51.756;7.450;2022-07-24T08:59:53;23.50;99.90
19292;DHT22;9779;51.756;7.450;2022-07-24T09:02:18;23.70;99.90
19292;DHT22;9779;51.756;7.450;2022-07-24T09:04:48;23.80;99.90
19292;DHT22;9779;51.756;7.450;2022-07-24T09:07:20;23.90;99.90
19292;DHT22;9779;51.756;7.450;2022-07-24T09:10:04;23.90;99.90
19292;DHT22;9779;51.756;7.450;2022-07-24T09:12:35;24.10;99.90
19292;DHT22;9779;51.756;7.450;2022-07-24T09:15:10;24.30;99.90
19292;DHT22;9779;51.756;7.450;2022-07-24T09:17:35;24.40;99.90
19292;DHT22;9779;51.756;7.450;2022-07-24T09:20:01;24.60;99.90
19292;DHT22;9779;51.756;7.450;2022-07-24T09:25:23;24.70;99.90
19292;DHT22;9779;51.756;7.450;2022-07-24T09:27:58;24.80;99.90
19292;DHT22;9779;51.756;7.450;2022-07-24T09:33:00;24.90;99.90
19292;DHT22;9779;51.756;7.450;2022-07-24T09:35:34;25.00;99.90
19292;DHT22;9779;51.756;7.450;2022-07-24T09:38:02;25.10;99.90
19292;DHT22;9779;51.756;7.450;2022-07-24T09:40:51;25.20;99.90
19292;DHT22;9779;51.756;7.450;2022-07-24T09:43:24;25.40;99.90
19292;DHT22;9779;51.756;7.450;2022-07-24T09:50:57;25.50;99.90
19292;DHT22;9779;51.756;7.450;2022-07-24T09:53:26;25.60;99.90
19292;DHT22;9779;51.756;7.450;2022-07-24T09:56:17;25.70;99.90
19292;DHT22;9779;51.756;7.450;2022-07-24T10:01:14;26.00;99.90
19292;DHT22;9779;51.756;7.450;2022-07-24T10:03:41;26.20;99.90
19292;DHT22;9779;51.756;7.450;2022-07-24T10:06:10;26.20;99.90
19292;DHT22;9779;51.756;7.450;2022-07-24T10:08:39;26.20;99.90
19292;DHT22;9779;51.756;7.450;2022-07-24T10:11:05;26.20;99.90
19292;DHT22;9779;51.756;7.450;2022-07-24T10:13:31;26.30;99.90
19292;DHT22;9779;51.756;7.450;2022-07-24T10:21:07;26.60;99.90
19292;DHT22;9779;51.756;7.450;2022-07-24T10:31:34;27.00;99.90
19292;DHT22;9779;51.756;7.450;2022-07-24T10:34:05;26.90;99.90
19292;DHT22;9779;51.756;7.450;2022-07-24T10:36:38;27.00;99.90
19292;DHT22;9779;51.756;7.450;2022-07-24T10:39:13;27.10;99.90
19292;DHT22;9779;51.756;7.450;2022-07-24T10:41:39;27.20;99.90
19292;DHT22;9779;51.756;7.450;2022-07-24T10:46:58;27.50;99.90
19292;DHT22;9779;51.756;7.450;2022-07-24T10:49:34;27.80;99.90
19292;DHT22;9779;51.756;7.450;2022-07-24T10:52:00;28.00;99.90
19292;DHT22;9779;51.756;7.450;2022-07-24T10:54:25;28.10;99.90
19292;DHT22;9779;51.756;7.450;2022-07-24T10:59:36;28.30;99.90
19292;DHT22;9779;51.756;7.450;2022-07-24T11:02:25;28.50;99.90
19292;DHT22;9779;51.756;7.450;2022-07-24T11:18:39;29.20;99.90
19292;DHT22;9779;51.756;7.450;2022-07-24T11:23:35;29.30;99.90
19292;DHT22;9779;51.756;7.450;2022-07-24T11:29:27;29.30;99.90
19292;DHT22;9779;51.756;7.450;2022-07-24T11:32:01;29.20;99.90
19292;DHT22;9779;51.756;7.450;2022-07-24T11:34:29;29.40;99.90
19292;DHT22;9779;51.756;7.450;2022-07-24T11:36:57;29.40;99.90
19292;DHT22;9779;51.756;7.450;2022-07-24T11:39:30;29.50;99.90
19292;DHT22;9779;51.756;7.450;2022-07-24T11:42:03;29.80;99.90
19292;DHT22;9779;51.756;7.450;2022-07-24T11:44:32;29.90;99.90
19292;DHT22;9779;51.756;7.450;2022-07-24T11:47:17;30.30;99.90
19292;DHT22;9779;51.756;7.450;2022-07-24T11:52:23;30.60;94.20
19292;DHT22;9779;51.756;7.450;2022-07-24T11:54:51;30.80;94.60
19292;DHT22;9779;51.756;7.450;2022-07-24T11:57:29;31.10;93.80
19292;DHT22;9779;51.756;7.450;2022-07-24T11:59:55;30.90;94.00
19292;DHT22;9779;51.756;7.450;2022-07-24T12:02:21;30.80;91.50
19292;DHT22;9779;51.756;7.450;2022-07-24T12:04:48;31.10;91.90
19292;DHT22;9779;51.756;7.450;2022-07-24T12:07:21;31.20;89.80
19292;DHT22;9779;51.756;7.450;2022-07-24T12:09:59;31.30;90.60
19292;DHT22;9779;51.756;7.450;2022-07-24T12:12:30;31.50;90.90
19292;DHT22;9779;51.756;7.450;2022-07-24T12:17:34;31.10;87.80
19292;DHT22;9779;51.756;7.450;2022-07-24T12:20:02;31.00;88.10
19292;DHT22;9779;51.756;7.450;2022-07-24T12:22:30;31.20;88.80
19292;DHT22;9779;51.756;7.450;2022-07-24T12:24:57;31.40;86.20
19292;DHT22;9779;51.756;7.450;2022-07-24T12:27:42;31.50;86.60
19292;DHT22;9779;51.756;7.450;2022-07-24T12:30:18;31.50;84.20
19292;DHT22;9779;51.756;7.450;2022-07-24T12:35:30;32.00;82.40
19292;DHT22;9779;51.756;7.450;2022-07-24T12:37:57;32.00;82.80
19292;DHT22;9779;51.756;7.450;2022-07-24T12:40:34;32.30;76.60
19292;DHT22;9779;51.756;7.450;2022-07-24T12:45:28;32.60;81.10
19292;DHT22;9779;51.756;7.450;2022-07-24T12:48:17;32.50;77.40
19292;DHT22;9779;51.756;7.450;2022-07-24T12:53:29;32.00;78.70
19292;DHT22;9779;51.756;7.450;2022-07-24T12:56:21;32.00;78.30
19292;DHT22;9779;51.756;7.450;2022-07-24T12:58:55;32.80;79.40
19292;DHT22;9779;51.756;7.450;2022-07-24T13:01:23;32.80;76.00
19292;DHT22;9779;51.756;7.450;2022-07-24T13:03:53;33.20;74.20
19292;DHT22;9779;51.756;7.450;2022-07-24T13:06:31;33.00;71.40
19292;DHT22;9779;51.756;7.450;2022-07-24T13:08:57;32.80;72.90
19292;DHT22;9779;51.756;7.450;2022-07-24T13:11:22;33.60;71.30
19292;DHT22;9779;51.756;7.450;2022-07-24T13:13:48;33.70;70.10
19292;DHT22;9779;51.756;7.450;2022-07-24T13:16:13;34.20;73.40
19292;DHT22;9779;51.756;7.450;2022-07-24T13:18:39;34.30;68.80
19292;DHT22;9779;51.756;7.450;2022-07-24T13:21:04;34.30;67.00
19292;DHT22;9779;51.756;7.450;2022-07-24T13:23:30;34.10;68.40
19292;DHT22;9779;51.756;7.450;2022-07-24T13:25:56;34.00;69.20
19292;DHT22;9779;51.756;7.450;2022-07-24T13:28:22;34.30;70.50
19292;DHT22;9779;51.756;7.450;2022-07-24T13:30:48;34.40;67.70
19292;DHT22;9779;51.756;7.450;2022-07-24T13:33:13;34.00;66.20
19292;DHT22;9779;51.756;7.450;2022-07-24T13:35:39;34.50;70.00
19292;DHT22;9779;51.756;7.450;2022-07-24T13:38:04;35.20;65.90
19292;DHT22;9779;51.756;7.450;2022-07-24T13:40:30;35.50;64.90
19292;DHT22;9779;51.756;7.450;2022-07-24T13:42:56;35.90;65.20
19292;DHT22;9779;51.756;7.450;2022-07-24T13:45:21;35.50;61.10
19292;DHT22;9779;51.756;7.450;2022-07-24T13:47:47;34.80;62.00
19292;DHT22;9779;51.756;7.450;2022-07-24T13:50:13;34.80;63.10
19292;DHT22;9779;51.756;7.450;2022-07-24T13:52:38;35.10;63.70
19292;DHT22;9779;51.756;7.450;2022-07-24T13:55:05;35.20;62.40
19292;DHT22;9779;51.756;7.450;2022-07-24T13:57:31;35.30;61.60
19292;DHT22;9779;51.756;7.450;2022-07-24T13:59:56;35.60;62.80
19292;DHT22;9779;51.756;7.450;2022-07-24T14:02:22;35.10;60.70
19292;DHT22;9779;51.756;7.450;2022-07-24T14:04:47;35.20;61.10
19292;DHT22;9779;51.756;7.450;2022-07-24T14:07:13;35.40;63.00
19292;DHT22;9779;51.756;7.450;2022-07-24T14:09:39;35.80;61.60
19292;DHT22;9779;51.756;7.450;2022-07-24T14:12:05;36.10;61.60
19292;DHT22;9779;51.756;7.450;2022-07-24T14:14:31;36.10;57.90
19292;DHT22;9779;51.756;7.450;2022-07-24T14:16:56;36.20;57.70
19292;DHT22;9779;51.756;7.450;2022-07-24T14:19:22;36.20;58.50
19292;DHT22;9779;51.756;7.450;2022-07-24T14:21:48;36.00;59.70
19292;DHT22;9779;51.756;7.450;2022-07-24T14:24:15;35.80;57.90
19292;DHT22;9779;51.756;7.450;2022-07-24T14:26:42;35.70;57.90
19292;DHT22;9779;51.756;7.450;2022-07-24T14:29:08;36.10;56.90
19292;DHT22;9779;51.756;7.450;2022-07-24T14:31:33;36.40;57.30
19292;DHT22;9779;51.756;7.450;2022-07-24T14:33:59;36.70;75.40
19292;DHT22;9779;51.756;7.450;2022-07-24T14:36:24;37.10;58.80
19292;DHT22;9779;51.756;7.450;2022-07-24T14:38:50;37.40;84.60
19292;DHT22;9779;51.756;7.450;2022-07-24T14:41:16;37.10;55.70
19292;DHT22;9779;51.756;7.450;2022-07-24T14:43:41;36.90;53.00
19292;DHT22;9779;51.756;7.450;2022-07-24T14:46:07;36.90;54.80
19292;DHT22;9779;51.756;7.450;2022-07-24T14:48:32;36.30;54.80
19292;DHT22;9779;51.756;7.450;2022-07-24T14:50:58;36.40;56.10
19292;DHT22;9779;51.756;7.450;2022-07-24T14:53:23;36.70;55.60
19292;DHT22;9779;51.756;7.450;2022-07-24T14:55:49;37.20;54.40
19292;DHT22;9779;51.756;7.450;2022-07-24T14:58:14;37.00;52.00
19292;DHT22;9779;51.756;7.450;2022-07-24T15:00:40;37.00;53.00
19292;DHT22;9779;51.756;7.450;2022-07-24T15:03:06;36.70;53.20
19292;DHT22;9779;51.756;7.450;2022-07-24T15:05:31;36.80;52.40
19292;DHT22;9779;51.756;7.450;2022-07-24T15:07:57;37.10;54.40
19292;DHT22;9779;51.756;7.450;2022-07-24T15:10:22;37.00;53.30
19292;DHT22;9779;51.756;7.450;2022-07-24T15:12:48;36.80;49.90
19292;DHT22;9779;51.756;7.450;2022-07-24T15:15:13;36.80;52.40
19292;DHT22;9779;51.756;7.450;2022-07-24T15:17:39;37.10;53.20
19292;DHT22;9779;51.756;7.450;2022-07-24T15:20:05;37.30;52.60
19292;DHT22;9779;51.756;7.450;2022-07-24T15:22:31;37.30;51.10
19292;DHT22;9779;51.756;7.450;2022-07-24T15:24:56;37.20;52.20
19292;DHT22;9779;51.756;7.450;2022-07-24T15:27:22;37.30;51.30
19292;DHT22;9779;51.756;7.450;2022-07-24T15:29:47;37.20;48.90
19292;DHT22;9779;51.756;7.450;2022-07-24T15:32:14;37.10;49.60
19292;DHT22;9779;51.756;7.450;2022-07-24T15:34:40;36.90;50.00
19292;DHT22;9779;51.756;7.450;2022-07-24T15:37:06;37.00;48.80
19292;DHT22;9779;51.756;7.450;2022-07-24T15:39:31;37.30;50.20
19292;DHT22;9779;51.756;7.450;2022-07-24T15:41:57;37.30;49.60
19292;DHT22;9779;51.756;7.450;2022-07-24T15:44:22;37.40;50.10
19292;DHT22;9779;51.756;7.450;2022-07-24T15:46:48;37.70;49.40
19292;DHT22;9779;51.756;7.450;2022-07-24T15:49:13;37.70;47.30
19292;DHT22;9779;51.756;7.450;2022-07-24T15:51:39;37.80;48.10
19292;DHT22;9779;51.756;7.450;2022-07-24T15:54:05;37.50;48.20
19292;DHT22;9779;51.756;7.450;2022-07-24T15:56:31;37.50;46.80
19292;DHT22;9779;51.756;7.450;2022-07-24T15:58:57;37.80;46.20
19292;DHT22;9779;51.756;7.450;2022-07-24T16:01:23;37.40;47.30
19292;DHT22;9779;51.756;7.450;2022-07-24T16:03:48;37.30;47.70
19292;DHT22;9779;51.756;7.450;2022-07-24T16:06:14;36.90;47.80
19292;DHT22;9779;51.756;7.450;2022-07-24T16:08:39;37.20;47.50
19292;DHT22;9779;51.756;7.450;2022-07-24T16:11:05;37.40;47.40
19292;DHT22;9779;51.756;7.450;2022-07-24T16:13:30;37.50;47.00
19292;DHT22;9779;51.756;7.450;2022-07-24T16:15:56;37.30;45.40
19292;DHT22;9779;51.756;7.450;2022-07-24T16:18:22;37.30;44.60
19292;DHT22;9779;51.756;7.450;2022-07-24T16:20:47;37.20;46.20
19292;DHT22;9779;51.756;7.450;2022-07-24T16:23:13;36.80;47.00
19292;DHT22;9779;51.756;7.450;2022-07-24T16:25:38;37.10;47.40
19292;DHT22;9779;51.756;7.450;2022-07-24T16:28:04;37.20;47.30
19292;DHT22;9779;51.756;7.450;2022-07-24T16:30:30;37.10;47.10
19292;DHT22;9779;51.756;7.450;2022-07-24T16:32:55;37.20;47.10
19292;DHT22;9779;51.756;7.450;2022-07-24T16:35:21;37.30;47.10
19292;DHT22;9779;51.756;7.450;2022-07-24T16:37:46;37.20;46.60
19292;DHT22;9779;51.756;7.450;2022-07-24T16:40:12;37.10;47.00
19292;DHT22;9779;51.756;7.450;2022-07-24T16:42:38;37.10;48.10
19292;DHT22;9779;51.756;7.450;2022-07-24T16:45:04;36.90;45.70
19292;DHT22;9779;51.756;7.450;2022-07-24T16:47:30;36.70;48.60